Monument, Oregon
Current Conditions -  °F | °C
As of 12:35 AM on Saturday 01 Nov 2014 (Local Time) from KGCD Reporting Station
Moderate Rain Moderate Rain  
Wind Chill: 45°   Ceiling: 300
Heat Index: 45°   Visibility: 3mi
Dew Point: 44°   Wind: 0mph
Humidity: 97%   Direction: NA
Pressure: 29.74"   Gusts: NA
Location:  44.82°N, 119.42°W
Report Text: KGCD 010735Z AUTO 00000KT 3SM RA OVC003 07/07 A2974 RMK AO2 T00700065
Loading
Personal Weather Stations






























Interactive Weather Map
Tropical Storm Tracking
New forecast layout! Learn more

10-Day Weather Forecast

Advertisements
Track Severe Weather on mobile